Fort Hall Indian Reservation, Idaho
Current Conditions -  °F | °C
As of 2:53 AM on Tuesday 27 Jan 2015 (Local Time) from KPIH Reporting Station
Haze Haze  
Wind Chill: 21°   Ceiling: Unl
Heat Index: 26°   Visibility: 6mi
Dew Point: 26°   Wind: 5mph
Humidity: 100%   Direction: 30°NNE
Pressure: 30.15"   Gusts: NA
Location:  42.98°N, 112.307°W
Report Text: KPIH 270953Z AUTO 03004KT 6SM BR CLR M03/M03 A3015 RMK AO2 SLP219 T10331033
Loading
Personal Weather Stations






























Interactive Weather Map New forecast layout! Learn more

10-Day Weather Forecast

Advertisements
Track Severe Weather on mobile